createdAt,value
2022-11-26T00:02:30.405Z,100074.25
2022-11-26T00:04:59.737Z,100077.94
2022-11-26T00:07:30.721Z,100082.09
2022-11-26T00:09:59.806Z,100090.97
2022-11-26T00:12:34.570Z,100093.03
2022-11-26T00:15:20.567Z,100086.50
2022-11-26T00:17:49.717Z,100087.09
2022-11-26T00:20:18.713Z,100080.56
2022-11-26T00:22:58.708Z,100085.44
2022-11-26T00:25:48.358Z,100088.03
2022-11-26T00:28:31.177Z,100093.16
2022-11-26T00:31:06.306Z,100093.66
2022-11-26T00:33:34.261Z,100090.78
2022-11-26T00:36:13.477Z,100088.28
2022-11-26T00:38:41.182Z,100093.63
2022-11-26T00:41:20.376Z,100101.78
2022-11-26T00:43:48.126Z,100102.00
2022-11-26T00:46:20.382Z,100100.28
2022-11-26T00:48:48.796Z,100092.09
2022-11-26T00:51:26.949Z,100095.25
2022-11-26T00:53:56.882Z,100096.56
2022-11-26T00:56:24.644Z,100108.97
2022-11-26T00:58:52.495Z,100105.81
2022-11-26T01:01:26.052Z,100109.28
2022-11-26T01:03:54.533Z,100110.19
2022-11-26T01:06:29.602Z,100109.59
2022-11-26T01:08:57.175Z,100116.97
2022-11-26T01:11:25.810Z,100104.63
2022-11-26T01:13:55.455Z,100108.63
2022-11-26T01:16:30.093Z,100103.47
2022-11-26T01:19:02.277Z,100094.81
2022-11-26T01:21:33.501Z,100095.47
2022-11-26T01:24:00.969Z,100093.41
2022-11-26T01:26:35.665Z,100094.41
2022-11-26T01:29:03.381Z,100094.81
2022-11-26T01:31:31.472Z,100081.88
2022-11-26T01:33:59.220Z,100073.22
2022-11-26T01:36:34.517Z,100077.41
2022-11-26T01:39:21.128Z,100082.16
2022-11-26T01:42:11.305Z,100086.28
2022-11-26T01:44:39.292Z,100085.41
2022-11-26T01:47:31.244Z,100092.84
2022-11-26T01:50:32.310Z,100094.53
2022-11-26T01:53:16.394Z,100091.97
2022-11-26T01:55:52.402Z,100095.41
2022-11-26T01:58:40.079Z,100099.91
2022-11-26T02:01:08.497Z,100102.03
2022-11-26T02:04:09.676Z,100102.91
2022-11-26T02:06:37.460Z,100093.28
2022-11-26T02:09:08.293Z,100101.91
2022-11-26T02:11:36.436Z,100107.50
2022-11-26T02:14:14.540Z,100110.88
2022-11-26T02:17:03.194Z,100109.41
2022-11-26T02:20:09.590Z,100114.16
2022-11-26T02:22:55.516Z,100117.16
2022-11-26T02:26:02.303Z,100128.16
2022-11-26T02:29:07.048Z,100125.28
2022-11-26T02:31:53.811Z,100134.38
2022-11-26T02:34:38.021Z,100139.75
2022-11-26T02:37:18.929Z,100137.75
2022-11-26T02:39:47.483Z,100135.75
2022-11-26T02:42:41.339Z,100135.47
2022-11-26T02:45:11.259Z,100130.38
2022-11-26T02:47:43.325Z,100137.22
2022-11-26T02:50:23.046Z,100128.50
2022-11-26T02:52:53.604Z,100126.47
2022-11-26T02:55:27.993Z,100136.81
2022-11-26T02:57:56.862Z,100132.00
2022-11-26T03:00:24.835Z,100140.69
2022-11-26T03:03:03.068Z,100134.03
2022-11-26T03:05:36.159Z,100135.38
2022-11-26T03:08:06.144Z,100140.09
2022-11-26T03:10:34.234Z,100151.44
2022-11-26T03:13:01.822Z,100152.88
2022-11-26T03:15:29.395Z,100148.06
2022-11-26T03:17:56.909Z,100162.03
2022-11-26T03:20:24.711Z,100146.28
2022-11-26T03:22:52.255Z,100155.84
2022-11-26T03:25:19.995Z,100173.00
2022-11-26T03:27:47.594Z,100167.94
2022-11-26T03:30:15.361Z,100170.00
2022-11-26T03:32:43.027Z,100174.19
2022-11-26T03:35:10.850Z,100178.34
2022-11-26T03:37:38.462Z,100187.03
2022-11-26T03:40:07.953Z,100202.06
2022-11-26T03:42:36.116Z,100191.00
2022-11-26T03:45:04.782Z,100190.81
2022-11-26T03:47:32.357Z,100203.75
2022-11-26T03:49:59.906Z,100195.00
2022-11-26T03:52:27.627Z,100205.91
2022-11-26T03:54:55.171Z,100201.03
2022-11-26T03:57:22.920Z,100213.69
2022-11-26T03:59:50.502Z,100207.78
2022-11-26T04:02:18.053Z,100219.94
2022-11-26T04:04:45.512Z,100213.94
2022-11-26T04:07:13.283Z,100215.88
2022-11-26T04:09:40.765Z,100227.78
2022-11-26T04:12:08.293Z,100227.63
2022-11-26T04:14:35.901Z,100220.09
2022-11-26T04:17:03.552Z,100226.53
2022-11-26T04:19:31.152Z,100229.50
2022-11-26T04:21:58.653Z,100233.41
2022-11-26T04:24:26.236Z,100233.59
2022-11-26T04:26:53.774Z,100229.59
2022-11-26T04:29:21.215Z,100232.41
2022-11-26T04:31:48.742Z,100235.69
2022-11-26T04:34:16.230Z,100236.50
2022-11-26T04:36:43.681Z,100237.75
2022-11-26T04:39:12.620Z,100240.25
2022-11-26T04:41:40.101Z,100243.44
2022-11-26T04:44:07.675Z,100243.84
2022-11-26T04:46:35.144Z,100254.19
2022-11-26T04:49:02.663Z,100242.63
2022-11-26T04:51:30.146Z,100251.47
2022-11-26T04:54:01.619Z,100263.94
2022-11-26T04:56:30.374Z,100268.66
2022-11-26T04:58:57.793Z,100258.03
2022-11-26T05:01:25.409Z,100260.41
2022-11-26T05:03:52.886Z,100267.34
2022-11-26T05:06:20.372Z,100274.44
2022-11-26T05:08:47.851Z,100282.84
2022-11-26T05:11:15.272Z,100279.94
2022-11-26T05:13:42.933Z,100298.47
2022-11-26T05:16:10.644Z,100295.56
2022-11-26T05:18:38.160Z,100299.25
2022-11-26T05:21:06.954Z,100303.53
2022-11-26T05:23:34.564Z,100305.56
2022-11-26T05:26:02.004Z,100303.63
2022-11-26T05:28:29.635Z,100314.97
2022-11-26T05:31:05.398Z,100316.75
2022-11-26T05:33:33.190Z,100316.88
2022-11-26T05:36:01.550Z,100318.53
2022-11-26T05:38:29.038Z,100323.59
2022-11-26T05:40:56.728Z,100324.03
2022-11-26T05:43:24.516Z,100321.91
2022-11-26T05:45:52.137Z,100330.53
2022-11-26T05:48:19.943Z,100330.72
2022-11-26T05:50:51.541Z,100328.63
2022-11-26T05:53:21.986Z,100331.31
2022-11-26T05:55:49.449Z,100333.78
2022-11-26T05:58:17.161Z,100337.28
2022-11-26T06:00:44.809Z,100344.56
2022-11-26T06:03:16.927Z,100351.28
2022-11-26T06:05:47.393Z,100350.03
2022-11-26T06:08:14.899Z,100344.81
2022-11-26T06:10:44.590Z,100346.91
2022-11-26T06:13:12.063Z,100359.44
2022-11-26T06:15:39.566Z,100350.63
2022-11-26T06:18:07.144Z,100356.19
2022-11-26T06:20:34.815Z,100364.97
2022-11-26T06:23:03.211Z,100362.22
2022-11-26T06:25:31.835Z,100363.19
2022-11-26T06:27:59.327Z,100356.44
2022-11-26T06:30:27.098Z,100361.63
2022-11-26T06:32:55.026Z,100365.78
2022-11-26T06:35:22.511Z,100370.50
2022-11-26T06:37:50.176Z,100368.91
2022-11-26T06:40:20.592Z,100372.91
2022-11-26T06:42:50.213Z,100374.63
2022-11-26T06:45:17.918Z,100378.59
2022-11-26T06:47:47.670Z,100390.00
2022-11-26T06:50:20.167Z,100389.59
2022-11-26T06:52:53.971Z,100386.59
2022-11-26T06:55:22.290Z,100389.53
2022-11-26T06:57:51.757Z,100401.50
2022-11-26T07:00:19.767Z,100400.22
2022-11-26T07:02:47.430Z,100391.28
2022-11-26T07:05:14.986Z,100393.25
2022-11-26T07:07:42.917Z,100404.06
2022-11-26T07:10:10.938Z,100403.81
2022-11-26T07:12:38.444Z,100399.28
2022-11-26T07:15:06.845Z,100399.41
2022-11-26T07:17:34.373Z,100392.22
2022-11-26T07:20:01.860Z,100397.19
2022-11-26T07:22:29.377Z,100397.84
2022-11-26T07:24:56.818Z,100395.28
2022-11-26T07:27:24.377Z,100403.63
2022-11-26T07:29:52.327Z,100396.88
2022-11-26T07:32:19.775Z,100398.16
2022-11-26T07:34:47.332Z,100403.13
2022-11-26T07:37:14.866Z,100397.66
2022-11-26T07:39:42.455Z,100397.59
2022-11-26T07:42:09.952Z,100409.78
2022-11-26T07:44:37.697Z,100398.50
2022-11-26T07:47:05.496Z,100395.00
2022-11-26T07:49:32.977Z,100396.44
2022-11-26T07:52:00.433Z,100392.38
2022-11-26T07:54:27.999Z,100401.91
2022-11-26T07:56:55.582Z,100399.97
2022-11-26T07:59:23.119Z,100404.88
2022-11-26T08:01:50.620Z,100411.00
2022-11-26T08:04:18.104Z,100401.63
2022-11-26T08:06:45.642Z,100401.31
2022-11-26T08:09:13.342Z,100400.28
2022-11-26T08:11:40.950Z,100403.22
2022-11-26T08:14:12.203Z,100396.03
2022-11-26T08:16:40.607Z,100403.38
2022-11-26T08:19:13.691Z,100404.41
2022-11-26T08:21:41.981Z,100407.63
2022-11-26T08:24:15.619Z,100402.28
2022-11-26T08:26:46.589Z,100402.22
2022-11-26T08:29:14.953Z,100394.28
2022-11-26T08:31:46.324Z,100397.81
2022-11-26T08:34:16.307Z,100401.78
2022-11-26T08:36:45.683Z,100407.59
2022-11-26T08:39:15.659Z,100407.97
2022-11-26T08:41:47.336Z,100409.97
2022-11-26T08:44:19.468Z,100403.88
2022-11-26T08:46:47.412Z,100407.38
2022-11-26T08:49:16.996Z,100407.13
2022-11-26T08:51:47.257Z,100403.78
2022-11-26T08:54:14.841Z,100406.22
2022-11-26T08:56:42.493Z,100403.88
2022-11-26T08:59:09.960Z,100410.13
2022-11-26T09:01:37.679Z,100406.63
2022-11-26T09:04:06.107Z,100409.38
2022-11-26T09:06:37.146Z,100415.06
2022-11-26T09:09:17.489Z,100414.66
2022-11-26T09:11:51.624Z,100410.97
2022-11-26T09:14:25.006Z,100409.72
2022-11-26T09:16:54.787Z,100421.28
2022-11-26T09:19:22.797Z,100412.72
2022-11-26T09:21:53.279Z,100416.69
2022-11-26T09:24:22.999Z,100398.41
2022-11-26T09:26:50.863Z,100402.56
2022-11-26T09:29:22.235Z,100405.19
2022-11-26T09:34:40.193Z,100394.44
2022-11-26T09:37:09.606Z,100391.97
2022-11-26T09:39:37.129Z,100391.97
2022-11-26T09:42:38.243Z,100381.91
2022-11-26T09:45:14.047Z,100382.72
2022-11-26T09:47:45.691Z,100389.97
2022-11-26T09:50:16.036Z,100380.13
2022-11-26T09:53:25.694Z,100385.03
2022-11-26T09:55:56.077Z,100380.59
2022-11-26T09:59:01.728Z,100377.63
2022-11-26T10:01:32.042Z,100375.34
2022-11-26T10:04:00.035Z,100369.88
2022-11-26T10:06:42.049Z,100372.75
2022-11-26T10:09:33.891Z,100360.72
2022-11-26T10:12:26.377Z,100353.88
2022-11-26T10:15:36.073Z,100354.88
2022-11-26T10:18:33.721Z,100352.94
2022-11-26T10:21:32.501Z,100349.81
2022-11-26T10:24:33.573Z,100341.81
2022-11-26T10:27:13.736Z,100340.78
2022-11-26T10:29:52.229Z,100337.09
2022-11-26T10:32:31.885Z,100334.03
2022-11-26T10:35:00.015Z,100334.84
2022-11-26T10:37:31.587Z,100333.66
2022-11-26T10:40:24.417Z,100339.78
2022-11-26T10:43:19.919Z,100332.50
2022-11-26T10:45:57.107Z,100320.09
2022-11-26T10:48:33.951Z,100324.91
2022-11-26T10:51:13.675Z,100324.06
2022-11-26T10:54:00.095Z,100326.81
2022-11-26T10:56:47.718Z,100330.25
2022-11-26T10:59:28.563Z,100328.13
2022-11-26T11:02:02.998Z,100317.59
2022-11-26T11:04:41.395Z,100325.41
2022-11-26T11:07:29.185Z,100322.22
2022-11-26T11:10:09.579Z,100321.94
2022-11-26T11:12:40.136Z,100312.81
2022-11-26T11:15:24.175Z,100311.81
2022-11-26T11:18:19.583Z,100310.22
2022-11-26T11:20:58.283Z,100314.34
2022-11-26T11:24:00.090Z,100313.03
2022-11-26T11:26:25.530Z,100315.34
2022-11-26T11:28:55.611Z,100311.19
2022-11-26T11:31:29.081Z,100312.94
2022-11-26T11:34:38.889Z,100317.31
2022-11-26T11:37:18.788Z,100319.84
2022-11-26T11:39:46.451Z,100313.81
2022-11-26T11:42:30.583Z,100314.44
2022-11-26T11:45:01.541Z,100310.19
2022-11-26T11:47:42.777Z,100313.25
2022-11-26T11:50:19.358Z,100311.19
2022-11-26T11:53:20.684Z,100311.41
2022-11-26T11:56:09.525Z,100309.19
2022-11-26T11:59:02.702Z,100307.38
2022-11-26T12:01:45.250Z,100303.19
2022-11-26T12:04:43.772Z,100302.44
2022-11-26T12:07:35.259Z,100296.88
2022-11-26T12:10:37.478Z,100298.31
2022-11-26T12:13:11.435Z,100293.69
2022-11-26T12:16:03.432Z,100295.50
2022-11-26T12:18:39.519Z,100292.03
2022-11-26T12:21:19.738Z,100288.75
2022-11-26T12:24:25.264Z,100288.47
2022-11-26T12:27:01.081Z,100300.81
2022-11-26T12:29:42.122Z,100298.75
2022-11-26T12:32:53.847Z,100300.06
2022-11-26T12:35:32.971Z,100306.19
2022-11-26T12:38:26.417Z,100301.00
2022-11-26T12:41:09.173Z,100303.00
2022-11-26T12:44:28.575Z,100298.69
2022-11-26T12:47:28.569Z,100301.63
2022-11-26T12:50:54.157Z,100311.28
2022-11-26T12:53:52.296Z,100307.78
2022-11-26T12:56:42.138Z,100311.63
2022-11-26T12:59:23.418Z,100310.81
2022-11-26T13:01:53.102Z,100313.38
2022-11-26T13:04:37.199Z,100307.41
2022-11-26T13:07:11.217Z,100305.03
2022-11-26T13:09:52.478Z,100298.06
2022-11-26T13:12:39.842Z,100296.16
2022-11-26T13:15:29.075Z,100291.97
2022-11-26T13:18:01.286Z,100297.94
2022-11-26T13:20:48.539Z,100292.59
2022-11-26T13:23:46.990Z,100303.09
2022-11-26T13:26:17.459Z,100299.13
2022-11-26T13:29:25.877Z,100301.47
2022-11-26T13:32:36.797Z,100298.88
2022-11-26T13:35:47.828Z,100292.22
2022-11-26T13:38:33.854Z,100294.56
2022-11-26T13:41:51.921Z,100288.78
2022-11-26T13:44:51.332Z,100291.78
2022-11-26T13:47:25.574Z,100289.94
2022-11-26T13:50:07.483Z,100299.41
2022-11-26T13:52:48.303Z,100299.78
2022-11-26T13:55:28.200Z,100302.81
2022-11-26T13:58:01.326Z,100304.22
2022-11-26T14:00:33.119Z,100307.22
2022-11-26T14:03:02.912Z,100321.34
2022-11-26T14:06:08.213Z,100323.38
2022-11-26T14:08:47.049Z,100326.16
2022-11-26T14:11:40.337Z,100326.94
2022-11-26T14:14:26.252Z,100317.28
2022-11-26T14:17:03.141Z,100318.44
2022-11-26T14:19:42.875Z,100315.91
2022-11-26T14:22:35.466Z,100322.31
2022-11-26T14:25:09.866Z,100318.00
2022-11-26T14:27:52.913Z,100313.25
2022-11-26T14:30:24.642Z,100319.34
2022-11-26T14:33:04.246Z,100321.25
2022-11-26T14:35:38.284Z,100324.69
2022-11-26T14:38:23.932Z,100326.53
2022-11-26T14:41:01.589Z,100330.34
2022-11-26T14:43:31.807Z,100329.09
2022-11-26T14:46:19.873Z,100329.69
2022-11-26T14:48:50.849Z,100337.72
2022-11-26T14:51:28.572Z,100339.06
2022-11-26T14:53:57.738Z,100341.03
2022-11-26T14:56:26.611Z,100349.56
2022-11-26T14:59:01.469Z,100351.38
2022-11-26T15:01:31.918Z,100347.13
2022-11-26T15:04:07.841Z,100349.72
2022-11-26T15:06:43.000Z,100349.59
2022-11-26T15:09:17.049Z,100363.06
2022-11-26T15:12:13.897Z,100354.50
2022-11-26T15:14:54.671Z,100358.94
2022-11-26T15:17:25.510Z,100361.34
2022-11-26T15:20:00.701Z,100359.94
2022-11-26T15:22:42.570Z,100363.81
2022-11-26T15:25:29.967Z,100360.25
2022-11-26T15:28:04.293Z,100363.09
2022-11-26T15:30:37.659Z,100363.66
2022-11-26T15:33:14.957Z,100364.53
2022-11-26T15:35:43.860Z,100368.38
2022-11-26T15:38:21.730Z,100366.91
2022-11-26T15:40:55.170Z,100368.25
2022-11-26T15:43:50.785Z,100367.63
2022-11-26T15:46:22.389Z,100368.00
2022-11-26T15:48:59.618Z,100365.34
2022-11-26T15:51:39.608Z,100371.56
2022-11-26T15:54:49.732Z,100364.13
2022-11-26T15:57:41.043Z,100370.84
2022-11-26T16:00:40.421Z,100374.31
2022-11-26T16:03:55.591Z,100381.22
2022-11-26T16:06:40.266Z,100384.31
2022-11-26T16:09:13.646Z,100384.28
2022-11-26T16:12:00.252Z,100384.81
2022-11-26T16:14:36.716Z,100394.06
2022-11-26T16:17:19.404Z,100404.38
2022-11-26T16:20:16.925Z,100402.28
2022-11-26T16:22:55.019Z,100407.38
2022-11-26T16:25:31.365Z,100419.25
2022-11-26T16:28:11.784Z,100415.00
2022-11-26T16:30:43.818Z,100412.25
2022-11-26T16:33:13.694Z,100415.16
2022-11-26T16:35:45.699Z,100415.56
2022-11-26T16:38:28.395Z,100427.94
2022-11-26T16:40:57.571Z,100430.56
2022-11-26T16:43:28.845Z,100432.41
2022-11-26T16:45:59.659Z,100442.81
2022-11-26T16:48:28.937Z,100442.38
2022-11-26T16:50:59.758Z,100435.75
2022-11-26T16:53:27.242Z,100434.44
2022-11-26T16:55:59.185Z,100443.16
2022-11-26T16:58:50.571Z,100436.63
2022-11-26T17:01:20.678Z,100429.13
2022-11-26T17:03:50.247Z,100432.03
2022-11-26T17:06:29.227Z,100432.56
2022-11-26T17:09:01.719Z,100444.28
2022-11-26T17:11:29.677Z,100443.00
2022-11-26T17:13:57.343Z,100448.28
2022-11-26T17:16:26.351Z,100443.56
2022-11-26T17:18:54.093Z,100450.84
2022-11-26T17:21:21.673Z,100446.41
2022-11-26T17:23:49.288Z,100451.94
2022-11-26T17:26:24.849Z,100463.38
2022-11-26T17:28:52.587Z,100455.84
2022-11-26T17:31:21.834Z,100463.13
2022-11-26T17:33:51.198Z,100458.94
2022-11-26T17:36:23.635Z,100459.72
2022-11-26T17:38:51.872Z,100468.09
2022-11-26T17:41:19.772Z,100466.81
2022-11-26T17:43:47.562Z,100479.09
2022-11-26T17:46:22.150Z,100471.78
2022-11-26T17:48:54.294Z,100477.00
2022-11-26T17:51:24.590Z,100479.34
2022-11-26T17:53:52.656Z,100475.44
2022-11-26T17:56:24.724Z,100477.53
2022-11-26T17:58:53.625Z,100483.25
2022-11-26T18:01:24.299Z,100485.09
2022-11-26T18:03:53.937Z,100484.28
2022-11-26T18:07:06.485Z,100481.94
2022-11-26T18:09:35.063Z,100489.28
2022-11-26T18:12:05.170Z,100487.19
2022-11-26T18:14:35.902Z,100484.56
2022-11-26T18:17:04.825Z,100493.44
2022-11-26T18:19:32.450Z,100494.97
2022-11-26T18:22:01.032Z,100495.22
2022-11-26T18:24:31.469Z,100502.03
2022-11-26T18:26:59.707Z,100505.38
2022-11-26T18:29:30.480Z,100512.69
2022-11-26T18:32:00.854Z,100518.66
2022-11-26T18:34:29.069Z,100519.81
2022-11-26T18:37:03.714Z,100526.41
2022-11-26T18:39:33.064Z,100525.75
2022-11-26T18:44:52.977Z,100529.53
2022-11-26T18:47:22.070Z,100525.50
2022-11-26T18:49:58.605Z,100526.00
2022-11-26T18:52:27.288Z,100532.69
2022-11-26T18:54:57.248Z,100532.16
2022-11-26T18:57:26.558Z,100535.47
2022-11-26T18:59:54.250Z,100541.56
2022-11-26T19:02:24.963Z,100543.13
2022-11-26T19:04:57.785Z,100541.59
2022-11-26T19:07:27.003Z,100547.06
2022-11-26T19:10:01.490Z,100554.97
2022-11-26T19:12:31.259Z,100559.88
2022-11-26T19:14:59.220Z,100551.81
2022-11-26T19:20:14.411Z,100571.94
2022-11-26T19:22:42.914Z,100561.72
2022-11-26T19:25:15.074Z,100559.41
2022-11-26T19:27:45.978Z,100563.78
2022-11-26T19:30:18.655Z,100576.06
2022-11-26T19:32:48.463Z,100577.97
2022-11-26T19:35:17.640Z,100574.41
2022-11-26T19:37:46.015Z,100580.09
2022-11-26T19:40:17.359Z,100578.03
2022-11-26T19:42:46.092Z,100579.47
2022-11-26T19:45:19.517Z,100581.63
2022-11-26T19:47:48.851Z,100575.91
2022-11-26T19:50:19.631Z,100584.25
2022-11-26T19:52:52.973Z,100587.63
2022-11-26T19:55:21.067Z,100588.34
2022-11-26T19:57:56.888Z,100587.34
2022-11-26T20:00:25.774Z,100594.59
2022-11-26T20:02:53.857Z,100595.59
2022-11-26T20:08:21.428Z,100602.53
2022-11-26T20:10:58.872Z,100599.09
2022-11-26T20:13:27.204Z,100607.13
2022-11-26T20:15:55.098Z,100611.03
2022-11-26T20:18:24.325Z,100611.06
2022-11-26T20:21:20.649Z,100604.75
2022-11-26T20:23:51.920Z,100613.81
2022-11-26T20:26:28.287Z,100614.56
2022-11-26T20:29:13.617Z,100619.06
2022-11-26T20:31:48.047Z,100614.50
2022-11-26T20:34:21.262Z,100619.69
2022-11-26T20:36:49.529Z,100619.28
2022-11-26T20:39:22.166Z,100628.69
2022-11-26T20:41:51.002Z,100628.16
2022-11-26T20:44:19.689Z,100630.75
2022-11-26T20:46:47.704Z,100630.03
2022-11-26T20:49:18.375Z,100629.81
2022-11-26T20:51:50.700Z,100630.94
2022-11-26T20:54:19.832Z,100638.72
2022-11-26T20:56:51.605Z,100636.47
2022-11-26T20:59:22.608Z,100632.25
2022-11-26T21:01:50.232Z,100635.78
2022-11-26T21:04:18.598Z,100629.28
2022-11-26T21:06:47.870Z,100639.00
2022-11-26T21:09:38.776Z,100644.53
2022-11-26T21:12:07.272Z,100641.88
2022-11-26T21:14:34.894Z,100642.94
2022-11-26T21:17:02.491Z,100643.94
2022-11-26T21:19:30.703Z,100640.44
2022-11-26T21:21:59.608Z,100641.25
2022-11-26T21:24:27.250Z,100639.56
2022-11-26T21:26:55.364Z,100638.31
2022-11-26T21:29:26.479Z,100641.09
2022-11-26T21:31:54.533Z,100640.31
2022-11-26T21:34:22.661Z,100638.97
2022-11-26T21:36:52.084Z,100639.59
2022-11-26T21:39:19.979Z,100635.22
2022-11-26T21:41:47.822Z,100630.09
2022-11-26T21:44:18.683Z,100633.50
2022-11-26T21:46:49.248Z,100628.31
2022-11-26T21:49:17.364Z,100632.78
2022-11-26T21:51:45.931Z,100629.81
2022-11-26T21:54:14.534Z,100637.25
2022-11-26T21:56:42.010Z,100637.59
2022-11-26T21:59:10.640Z,100639.00
2022-11-26T22:01:40.047Z,100632.41
2022-11-26T22:06:56.670Z,100642.94
2022-11-26T22:09:33.541Z,100644.78
2022-11-26T22:12:04.586Z,100645.13
2022-11-26T22:14:32.313Z,100642.03
2022-11-26T22:16:59.823Z,100643.44
2022-11-26T22:19:28.907Z,100644.72
2022-11-26T22:21:56.377Z,100638.31
2022-11-26T22:24:25.603Z,100637.78
2022-11-26T22:26:55.061Z,100646.88
2022-11-26T22:29:22.604Z,100639.56
2022-11-26T22:31:52.497Z,100648.66
2022-11-26T22:34:24.782Z,100646.63
2022-11-26T22:36:53.628Z,100649.75
2022-11-26T22:39:21.269Z,100649.94
2022-11-26T22:41:49.321Z,100650.78
2022-11-26T22:44:19.482Z,100647.63
2022-11-26T22:46:47.307Z,100655.50
2022-11-26T22:49:17.902Z,100658.66
2022-11-26T22:51:47.370Z,100653.69
2022-11-26T22:54:20.445Z,100650.25
2022-11-26T22:56:49.646Z,100645.59
2022-11-26T22:59:17.791Z,100647.91
2022-11-26T23:01:49.885Z,100643.56
2022-11-26T23:04:20.555Z,100647.19
2022-11-26T23:06:49.142Z,100648.31
2022-11-26T23:09:17.798Z,100644.44
2022-11-26T23:11:46.337Z,100642.88
2022-11-26T23:14:14.076Z,100639.03
2022-11-26T23:16:43.816Z,100645.00
2022-11-26T23:19:16.575Z,100646.38
2022-11-26T23:21:46.696Z,100655.94
2022-11-26T23:24:16.191Z,100653.38
2022-11-26T23:26:46.099Z,100652.06
2022-11-26T23:29:15.563Z,100662.63
2022-11-26T23:31:46.084Z,100656.13
2022-11-26T23:34:15.126Z,100644.66
2022-11-26T23:36:43.660Z,100646.84
2022-11-26T23:39:14.242Z,100645.53
2022-11-26T23:41:41.800Z,100644.78
2022-11-26T23:44:09.435Z,100658.88
2022-11-26T23:46:39.999Z,100658.59
2022-11-26T23:49:07.629Z,100663.56
2022-11-26T23:51:35.086Z,100666.13
2022-11-26T23:54:02.723Z,100660.38
2022-11-26T23:56:33.329Z,100669.50
2022-11-26T23:59:04.355Z,100672.34
